createdAt,value
2024-02-22T00:00:16.521Z,99636.44
2024-02-22T00:03:20.578Z,99635.63
2024-02-22T00:06:22.065Z,99632.84
2024-02-22T00:09:23.713Z,99618.72
2024-02-22T00:12:25.259Z,99615.31
2024-02-22T00:15:27.192Z,99612.63
2024-02-22T00:18:28.706Z,99606.56
2024-02-22T00:21:30.193Z,99601.38
2024-02-22T00:24:31.637Z,99602.81
2024-02-22T00:27:34.790Z,99598.53
2024-02-22T00:30:36.231Z,99592.34
2024-02-22T00:33:37.757Z,99575.06
2024-02-22T00:36:43.258Z,99576.88
2024-02-22T00:39:47.643Z,99562.94
2024-02-22T00:42:49.135Z,99550.00
2024-02-22T00:45:51.896Z,99548.28
2024-02-22T00:48:53.362Z,99549.00
2024-02-22T00:51:54.888Z,99538.41
2024-02-22T00:54:56.572Z,99540.13
2024-02-22T00:57:58.016Z,99531.50
2024-02-22T01:00:59.473Z,99535.78
2024-02-22T01:04:01.017Z,99525.09
2024-02-22T01:07:02.908Z,99523.44
2024-02-22T01:10:06.560Z,99514.72
2024-02-22T01:13:09.844Z,99512.75
2024-02-22T01:16:11.292Z,99512.91
2024-02-22T01:19:12.895Z,99502.09
2024-02-22T01:22:14.646Z,99501.50
2024-02-22T01:25:16.054Z,99491.84
2024-02-22T01:28:17.478Z,99480.59
2024-02-22T01:31:18.970Z,99472.63
2024-02-22T01:34:21.929Z,99469.19
2024-02-22T01:37:23.474Z,99460.28
2024-02-22T01:40:24.931Z,99463.41
2024-02-22T01:43:26.431Z,99455.94
2024-02-22T01:46:28.076Z,99450.13
2024-02-22T01:49:29.697Z,99461.66
2024-02-22T01:52:31.281Z,99442.41
2024-02-22T01:55:33.297Z,99438.97
2024-02-22T01:58:37.534Z,99434.72
2024-02-22T02:01:51.978Z,99426.72
2024-02-22T02:04:53.626Z,99433.00
2024-02-22T02:07:55.089Z,99424.25
2024-02-22T02:10:56.652Z,99423.50
2024-02-22T02:13:58.159Z,99413.09
2024-02-22T02:16:59.712Z,99409.50
2024-02-22T02:20:08.431Z,99410.34
2024-02-22T02:23:45.014Z,99407.72
2024-02-22T02:26:47.022Z,99388.34
2024-02-22T02:29:48.531Z,99385.72
2024-02-22T02:32:50.236Z,99383.66
2024-02-22T02:35:53.254Z,99382.16
2024-02-22T02:38:54.674Z,99376.19
2024-02-22T02:41:56.228Z,99367.66
2024-02-22T02:44:57.699Z,99355.59
2024-02-22T02:47:59.238Z,99348.31
2024-02-22T02:51:00.807Z,99350.09
2024-02-22T02:54:02.283Z,99338.56
2024-02-22T02:57:03.956Z,99339.34
2024-02-22T03:00:10.621Z,99332.38
2024-02-22T03:03:12.061Z,99326.84
2024-02-22T03:06:13.611Z,99316.19
2024-02-22T03:09:15.865Z,99314.59
2024-02-22T03:12:17.341Z,99323.16
2024-02-22T03:15:18.833Z,99308.41
2024-02-22T03:18:20.361Z,99303.66
2024-02-22T03:21:22.372Z,99296.84
2024-02-22T03:24:23.771Z,99286.72
2024-02-22T03:27:25.252Z,99286.84
2024-02-22T03:30:27.384Z,99288.72
2024-02-22T03:33:29.352Z,99289.56
2024-02-22T03:36:31.232Z,99282.44
2024-02-22T03:39:32.699Z,99288.00
2024-02-22T03:42:34.915Z,99288.00
2024-02-22T03:45:36.394Z,99286.16
2024-02-22T03:48:37.946Z,99269.44
2024-02-22T03:51:39.417Z,99276.41
2024-02-22T03:54:41.340Z,99271.06
2024-02-22T03:57:43.278Z,99263.09
2024-02-22T04:00:44.860Z,99254.53
2024-02-22T04:03:46.362Z,99258.03
2024-02-22T04:06:48.291Z,99251.41
2024-02-22T04:09:50.216Z,99245.31
2024-02-22T04:12:51.659Z,99243.69
2024-02-22T04:15:53.131Z,99244.59
2024-02-22T04:18:54.738Z,99243.75
2024-02-22T04:21:56.346Z,99245.84
2024-02-22T04:24:57.783Z,99237.16
2024-02-22T04:27:59.240Z,99223.25
2024-02-22T04:31:05.074Z,99215.59
2024-02-22T04:34:06.516Z,99212.31
2024-02-22T04:37:07.987Z,99205.19
2024-02-22T04:40:09.792Z,99204.22
2024-02-22T04:43:11.262Z,99211.09
2024-02-22T04:46:12.682Z,99208.16
2024-02-22T04:49:14.269Z,99196.84
2024-02-22T04:52:15.784Z,99194.38
2024-02-22T04:55:18.602Z,99195.16
2024-02-22T04:58:20.012Z,99189.97
2024-02-22T05:01:21.780Z,99181.03
2024-02-22T05:04:23.256Z,99177.19
2024-02-22T05:07:24.695Z,99172.09
2024-02-22T05:10:26.149Z,99163.41
2024-02-22T05:13:27.606Z,99154.81
2024-02-22T05:16:29.035Z,99155.50
2024-02-22T05:19:30.544Z,99150.16
2024-02-22T05:22:32.067Z,99140.50
2024-02-22T05:25:35.010Z,99135.84
2024-02-22T05:28:36.595Z,99129.91
2024-02-22T05:31:38.081Z,99133.75
2024-02-22T05:34:39.613Z,99123.00
2024-02-22T05:37:41.234Z,99115.16
2024-02-22T05:40:43.045Z,99110.16
2024-02-22T05:43:44.781Z,99104.09
2024-02-22T05:46:46.322Z,99102.41
2024-02-22T05:49:47.845Z,99095.44
2024-02-22T05:52:49.372Z,99107.44
2024-02-22T05:55:50.978Z,99091.94
2024-02-22T05:58:52.536Z,99089.56
2024-02-22T06:01:54.217Z,99081.81
2024-02-22T06:05:01.162Z,99084.28
2024-02-22T06:08:02.765Z,99076.41
2024-02-22T06:11:04.621Z,99076.22
2024-02-22T06:14:06.227Z,99068.06
2024-02-22T06:17:07.944Z,99065.56
2024-02-22T06:20:10.433Z,99061.81
2024-02-22T06:23:13.088Z,99059.94
2024-02-22T06:26:15.263Z,99061.63
2024-02-22T06:29:16.759Z,99051.09
2024-02-22T06:32:18.362Z,99059.78
2024-02-22T06:35:22.330Z,99055.16
2024-02-22T06:38:24.982Z,99051.41
2024-02-22T06:41:26.529Z,99046.75
2024-02-22T06:44:28.070Z,99043.53
2024-02-22T06:47:29.776Z,99041.06
2024-02-22T06:50:31.707Z,99035.63
2024-02-22T06:53:33.396Z,99034.88
2024-02-22T06:56:35.105Z,99033.69
2024-02-22T06:59:36.554Z,99030.34
2024-02-22T07:02:38.554Z,99026.91
2024-02-22T07:05:40.021Z,99029.69
2024-02-22T07:08:41.633Z,99025.53
2024-02-22T07:11:43.145Z,99022.84
2024-02-22T07:14:44.697Z,99017.56
2024-02-22T07:17:46.251Z,99018.25
2024-02-22T07:20:47.858Z,99007.88
2024-02-22T07:23:49.298Z,99012.97
2024-02-22T07:26:50.770Z,99006.00
2024-02-22T07:29:52.580Z,99001.44
2024-02-22T07:32:54.227Z,98999.72
2024-02-22T07:35:55.735Z,99001.44
2024-02-22T07:38:58.439Z,98989.19
2024-02-22T07:41:59.872Z,98988.75
2024-02-22T07:45:02.070Z,98986.72
2024-02-22T07:48:09.510Z,98978.47
2024-02-22T07:51:11.739Z,98963.84
2024-02-22T07:54:13.165Z,98967.44
2024-02-22T07:57:14.716Z,98969.88
2024-02-22T08:00:18.477Z,98967.81
2024-02-22T08:03:19.921Z,98953.91
2024-02-22T08:06:21.461Z,98958.59
2024-02-22T08:09:23.313Z,98955.25
2024-02-22T08:12:24.801Z,98955.34
2024-02-22T08:15:26.377Z,98951.59
2024-02-22T08:18:27.827Z,98946.81
2024-02-22T08:21:29.342Z,98940.78
2024-02-22T08:24:30.785Z,98939.09
2024-02-22T08:27:32.268Z,98932.13
2024-02-22T08:30:33.778Z,98927.25
2024-02-22T08:33:35.305Z,98933.19
2024-02-22T08:36:36.775Z,98934.06
2024-02-22T08:39:38.259Z,98923.97
2024-02-22T08:42:39.843Z,98921.69
2024-02-22T08:45:41.529Z,98918.63
2024-02-22T08:48:43.174Z,98912.56
2024-02-22T08:51:44.650Z,98912.00
2024-02-22T08:54:46.186Z,98906.38
2024-02-22T08:57:52.521Z,98892.16
2024-02-22T09:00:55.641Z,98879.66
2024-02-22T09:03:57.135Z,98877.94
2024-02-22T09:06:59.220Z,98873.28
2024-02-22T09:10:01.869Z,98863.53
2024-02-22T09:13:03.460Z,98869.50
2024-02-22T09:16:05.258Z,98865.16
2024-02-22T09:19:06.721Z,98855.53
2024-02-22T09:22:08.289Z,98837.47
2024-02-22T09:25:12.085Z,98833.53
2024-02-22T09:28:14.162Z,98838.97
2024-02-22T09:31:17.842Z,98835.97
2024-02-22T09:34:19.301Z,98834.94
2024-02-22T09:37:21.974Z,98837.38
2024-02-22T09:40:24.809Z,98832.59
2024-02-22T09:43:26.264Z,98836.16
2024-02-22T09:46:27.924Z,98829.09
2024-02-22T09:49:29.516Z,98816.94
2024-02-22T09:52:30.985Z,98814.97
2024-02-22T09:55:32.523Z,98811.28
2024-02-22T09:58:34.033Z,98800.72
2024-02-22T10:01:35.623Z,98792.03
2024-02-22T10:04:37.215Z,98797.22
2024-02-22T10:07:40.947Z,98798.25
2024-02-22T10:10:42.787Z,98789.13
2024-02-22T10:13:44.738Z,98777.72
2024-02-22T10:16:47.070Z,98771.09
2024-02-22T10:20:15.142Z,98781.28
2024-02-22T10:23:18.252Z,98766.94
2024-02-22T10:26:19.801Z,98763.38
2024-02-22T10:29:22.108Z,98739.50
2024-02-22T10:32:23.740Z,98747.53
2024-02-22T10:35:25.473Z,98733.84
2024-02-22T10:38:30.058Z,98715.06
2024-02-22T10:41:31.635Z,98718.22
2024-02-22T10:44:33.222Z,98718.44
2024-02-22T10:47:36.215Z,98697.38
2024-02-22T10:50:39.038Z,98686.38
2024-02-22T10:53:43.326Z,98698.97
2024-02-22T10:56:49.505Z,98696.44
2024-02-22T10:59:55.436Z,98699.72
2024-02-22T11:02:57.235Z,98679.22
2024-02-22T11:06:01.034Z,98674.13
2024-02-22T11:09:02.846Z,98662.13
2024-02-22T11:12:06.496Z,98655.63
2024-02-22T11:15:08.847Z,98643.53
2024-02-22T11:18:10.406Z,98625.78
2024-02-22T11:21:13.422Z,98615.41
2024-02-22T11:24:15.601Z,98603.56
2024-02-22T11:27:18.703Z,98588.13
2024-02-22T11:30:20.733Z,98579.03
2024-02-22T11:33:23.650Z,98574.94
2024-02-22T11:36:26.279Z,98554.31
2024-02-22T11:39:28.358Z,98560.22
2024-02-22T11:42:30.769Z,98542.69
2024-02-22T11:45:33.076Z,98530.00
2024-02-22T11:48:35.074Z,98528.59
2024-02-22T11:51:37.847Z,98528.28
2024-02-22T11:54:41.197Z,98506.06
2024-02-22T11:57:43.248Z,98492.50
2024-02-22T12:00:45.618Z,98488.13
2024-02-22T12:03:48.224Z,98483.25
2024-02-22T12:06:50.316Z,98469.44
2024-02-22T12:09:51.859Z,98468.41
2024-02-22T12:12:53.665Z,98449.91
2024-02-22T12:16:07.900Z,98452.72
2024-02-22T12:19:09.827Z,98443.66
2024-02-22T12:22:11.325Z,98441.84
2024-02-22T12:25:13.010Z,98430.97
2024-02-22T12:28:14.473Z,98420.84
2024-02-22T12:31:18.085Z,98416.06
2024-02-22T12:34:19.892Z,98409.69
2024-02-22T12:37:21.635Z,98417.00
2024-02-22T12:40:23.097Z,98417.06
2024-02-22T12:43:24.595Z,98411.38
2024-02-22T12:46:28.652Z,98402.09
2024-02-22T12:49:32.193Z,98397.03
2024-02-22T12:52:33.753Z,98395.50
2024-02-22T12:55:35.294Z,98391.25
2024-02-22T12:58:36.868Z,98384.22
2024-02-22T13:01:38.705Z,98379.66
2024-02-22T13:04:40.386Z,98365.03
2024-02-22T13:07:42.090Z,98340.25
2024-02-22T13:10:43.827Z,98351.28
2024-02-22T13:13:45.527Z,98349.44
2024-02-22T13:16:47.111Z,98338.28
2024-02-22T13:19:48.599Z,98330.59
2024-02-22T13:22:50.056Z,98324.09
2024-02-22T13:25:52.208Z,98321.91
2024-02-22T13:28:53.877Z,98308.50
2024-02-22T13:31:58.703Z,98309.75
2024-02-22T13:35:00.540Z,98296.84
2024-02-22T13:38:02.112Z,98285.28
2024-02-22T13:41:04.524Z,98275.09
2024-02-22T13:44:13.750Z,98276.78
2024-02-22T13:47:19.229Z,98263.41
2024-02-22T13:50:20.819Z,98252.72
2024-02-22T13:53:22.962Z,98262.59
2024-02-22T13:56:24.681Z,98256.69
2024-02-22T13:59:26.435Z,98251.97
2024-02-22T14:02:27.988Z,98242.63
2024-02-22T14:05:31.520Z,98229.75
2024-02-22T14:08:33.572Z,98232.91
2024-02-22T14:11:35.044Z,98233.34
2024-02-22T14:14:36.554Z,98220.28
2024-02-22T14:20:43.392Z,98205.88
2024-02-22T14:23:46.934Z,98204.09
2024-02-22T14:26:50.692Z,98194.47
2024-02-22T14:29:53.390Z,98167.50
2024-02-22T14:32:54.889Z,98173.00
2024-02-22T14:35:56.948Z,98155.72
2024-02-22T14:38:58.963Z,98160.03
2024-02-22T14:42:00.756Z,98143.59
2024-02-22T14:45:02.559Z,98146.59
2024-02-22T14:48:05.288Z,98129.78
2024-02-22T14:51:08.504Z,98129.78
2024-02-22T14:54:10.344Z,98113.94
2024-02-22T14:57:12.002Z,98110.09
2024-02-22T15:00:16.029Z,98113.94
2024-02-22T15:03:17.734Z,98104.59
2024-02-22T15:06:19.513Z,98102.06
2024-02-22T15:09:21.134Z,98090.38
2024-02-22T15:12:22.778Z,98108.06
2024-02-22T15:15:24.201Z,98092.56
2024-02-22T15:18:25.784Z,98094.50
2024-02-22T15:21:27.473Z,98094.84
2024-02-22T15:24:28.957Z,98100.09
2024-02-22T15:27:31.181Z,98091.84
2024-02-22T15:30:32.624Z,98088.72
2024-02-22T15:33:34.278Z,98092.31
2024-02-22T15:36:36.008Z,98084.34
2024-02-22T15:39:42.436Z,98079.06
2024-02-22T15:42:45.954Z,98085.78
2024-02-22T15:45:47.467Z,98080.47
2024-02-22T15:48:49.692Z,98060.78
2024-02-22T15:51:54.436Z,98067.75
2024-02-22T15:54:55.994Z,98066.91
2024-02-22T15:57:58.577Z,98043.50
2024-02-22T16:01:02.027Z,98040.38
2024-02-22T16:04:04.803Z,98041.22
2024-02-22T16:07:06.622Z,98042.38
2024-02-22T16:10:09.739Z,98045.88
2024-02-22T16:13:14.233Z,98035.09
2024-02-22T16:16:17.971Z,98038.44
2024-02-22T16:19:19.586Z,98033.41
2024-02-22T16:22:21.220Z,98038.69
2024-02-22T16:25:22.764Z,98022.78
2024-02-22T16:28:29.552Z,98023.25
2024-02-22T16:31:31.126Z,98025.28
2024-02-22T16:34:32.956Z,98023.84
2024-02-22T16:37:34.898Z,98008.00
2024-02-22T16:40:37.423Z,98015.44
2024-02-22T16:43:38.958Z,98009.66
2024-02-22T16:46:41.830Z,98015.44
2024-02-22T16:49:43.644Z,98012.56
2024-02-22T16:52:45.418Z,98007.75
2024-02-22T16:55:47.061Z,98017.59
2024-02-22T16:58:48.623Z,98021.16
2024-02-22T17:01:50.212Z,98025.78
2024-02-22T17:04:51.700Z,98017.13
2024-02-22T17:07:53.176Z,98014.41
2024-02-22T17:10:54.839Z,98004.50
2024-02-22T17:13:56.508Z,97992.97
2024-02-22T17:16:59.203Z,97992.03
2024-02-22T17:20:00.980Z,97975.78
2024-02-22T17:23:02.711Z,97981.44
2024-02-22T17:26:04.709Z,97969.06
2024-02-22T17:29:06.567Z,97942.44
2024-02-22T17:32:08.337Z,97934.53
2024-02-22T17:35:10.111Z,97938.84
2024-02-22T17:38:11.882Z,97946.75
2024-02-22T17:41:13.444Z,97947.97
2024-02-22T17:44:15.575Z,97939.69
2024-02-22T17:47:19.000Z,97942.22
2024-02-22T17:50:20.818Z,97944.03
2024-02-22T17:53:22.482Z,97954.34
2024-02-22T17:56:27.032Z,97940.09
2024-02-22T17:59:28.738Z,97919.94
2024-02-22T18:02:31.283Z,97917.41
2024-02-22T18:05:33.609Z,97899.56
2024-02-22T18:08:37.844Z,97894.75
2024-02-22T18:11:39.977Z,97883.94
2024-02-22T18:14:42.406Z,97888.84
2024-02-22T18:17:44.017Z,97883.94
2024-02-22T18:20:45.791Z,97882.25
2024-02-22T18:23:47.303Z,97879.13
2024-02-22T18:26:48.837Z,97878.44
2024-02-22T18:29:50.397Z,97884.41
2024-02-22T18:32:54.094Z,97879.97
2024-02-22T18:35:55.680Z,97888.53
2024-02-22T18:38:57.200Z,97881.78
2024-02-22T18:41:58.997Z,97870.13
2024-02-22T18:45:02.657Z,97873.50
2024-02-22T18:48:07.174Z,97867.09
2024-02-22T18:51:08.814Z,97860.38
2024-02-22T18:54:10.252Z,97842.09
2024-02-22T18:57:11.668Z,97829.13
2024-02-22T19:00:13.407Z,97817.03
2024-02-22T19:03:17.090Z,97821.81
2024-02-22T19:06:18.740Z,97825.16
2024-02-22T19:09:20.274Z,97815.25
2024-02-22T19:12:21.802Z,97818.84
2024-02-22T19:15:23.375Z,97819.28
2024-02-22T19:18:24.938Z,97833.38
2024-02-22T19:21:26.701Z,97844.38
2024-02-22T19:24:29.958Z,97838.44
2024-02-22T19:27:33.347Z,97814.22
2024-02-22T19:30:34.949Z,97833.69
2024-02-22T19:33:36.409Z,97852.91
2024-02-22T19:36:45.177Z,97835.09
2024-02-22T19:39:54.854Z,97855.22
2024-02-22T19:42:56.368Z,97841.22
2024-02-22T19:45:57.800Z,97833.25
2024-02-22T19:48:59.464Z,97817.03
2024-02-22T19:52:00.926Z,97814.06
2024-02-22T19:55:04.153Z,97823.22
2024-02-22T19:58:05.750Z,97849.59
2024-02-22T20:01:07.207Z,97827.84
2024-02-22T20:04:08.804Z,97827.16
2024-02-22T20:07:10.285Z,97798.59
2024-02-22T20:10:11.785Z,97802.66
2024-02-22T20:13:15.714Z,97840.38
2024-02-22T20:16:17.189Z,97862.97
2024-02-22T20:19:18.894Z,97857.72
2024-02-22T20:22:20.588Z,97824.31
2024-02-22T20:25:22.079Z,97823.81
2024-02-22T20:28:25.856Z,97826.22
2024-02-22T20:31:28.042Z,97860.47
2024-02-22T20:34:29.794Z,97884.34
2024-02-22T20:37:31.546Z,97903.84
2024-02-22T20:40:33.967Z,97905.47
2024-02-22T20:43:36.040Z,97895.75
2024-02-22T20:46:37.527Z,97902.53
2024-02-22T20:49:39.493Z,97899.53
2024-02-22T20:52:41.572Z,97938.41
2024-02-22T20:55:43.152Z,97932.44
2024-02-22T20:58:45.757Z,97949.72
2024-02-22T21:01:49.569Z,97955.47
2024-02-22T21:04:51.084Z,97964.47
2024-02-22T21:07:52.757Z,97978.13
2024-02-22T21:10:58.608Z,98001.06
2024-02-22T21:14:00.396Z,98013.78
2024-02-22T21:17:01.952Z,98037.69
2024-02-22T21:20:06.120Z,98063.97
2024-02-22T21:23:07.796Z,98081.47
2024-02-22T21:26:09.287Z,98083.34
2024-02-22T21:29:10.974Z,98076.88
2024-02-22T21:32:12.494Z,98074.16
2024-02-22T21:35:14.129Z,98086.03
2024-02-22T21:38:15.713Z,98117.91
2024-02-22T21:41:17.154Z,98101.91
2024-02-22T21:44:18.673Z,98133.78
2024-02-22T21:47:20.498Z,98136.94
2024-02-22T21:50:22.124Z,98154.88
2024-02-22T21:53:23.785Z,98155.81
2024-02-22T21:56:25.430Z,98151.69
2024-02-22T21:59:26.973Z,98127.94
2024-02-22T22:02:28.567Z,98123.56
2024-02-22T22:05:32.190Z,98132.63
2024-02-22T22:08:35.427Z,98128.03
2024-02-22T22:11:38.095Z,98132.22
2024-02-22T22:14:39.697Z,98121.72
2024-02-22T22:17:41.322Z,98125.31
2024-02-22T22:20:45.444Z,98130.09
2024-02-22T22:23:47.108Z,98150.00
2024-02-22T22:26:48.528Z,98160.88
2024-02-22T22:29:50.054Z,98157.63
2024-02-22T22:32:51.598Z,98174.56
2024-02-22T22:35:53.114Z,98173.34
2024-02-22T22:38:54.554Z,98193.53
2024-02-22T22:41:57.951Z,98210.50
2024-02-22T22:44:59.467Z,98213.66
2024-02-22T22:48:00.962Z,98233.66
2024-02-22T22:51:02.534Z,98252.06
2024-02-22T22:54:04.360Z,98237.47
2024-02-22T22:57:05.819Z,98250.44
2024-02-22T23:00:14.870Z,98281.66
2024-02-22T23:03:17.052Z,98279.03
2024-02-22T23:06:18.909Z,98269.91
2024-02-22T23:09:22.412Z,98275.84
2024-02-22T23:12:24.261Z,98280.19
2024-02-22T23:15:26.103Z,98285.25
2024-02-22T23:18:27.686Z,98347.59
2024-02-22T23:21:36.479Z,98346.28
2024-02-22T23:24:38.048Z,98315.28
2024-02-22T23:27:39.531Z,98329.13
2024-02-22T23:30:41.057Z,98352.69
2024-02-22T23:33:42.526Z,98360.31
2024-02-22T23:36:44.263Z,98351.78
2024-02-22T23:39:46.084Z,98353.59
2024-02-22T23:42:47.514Z,98357.06
2024-02-22T23:45:49.018Z,98355.53
2024-02-22T23:48:50.595Z,98357.53
2024-02-22T23:51:52.148Z,98393.97
2024-02-22T23:54:53.600Z,98396.22
2024-02-22T23:57:55.049Z,98403.38
